Time;durP1;ratioP1;P1;durP2;ratioP2;P2;SDS_P1;SDS_P2;PMS_P1;PMS_P2;Temp;Humidity;BMP_temperature;BMP_pressure;BME280_temperature;BME280_humidity;BME280_pressure;Samples;Min_cycle;Max_cycle;Signal;HPM_P1;HPM_P2
2021/12/13 00:19:25;;;;;;;9.80;6.45;;;;;;;;;;4761666;29;20225;-62
2021/12/13 00:21:59;;;;;;;9.30;6.72;;;;;;;;;;4144952;34;20106;-62
2021/12/13 00:24:32;;;;;;;9.43;7.10;;;;;;;;;;4137607;34;20526;-61
2021/12/13 00:27:18;;;;;;;9.80;5.53;;;;;;;;;;4137745;34;20628;-62
2021/12/13 00:29:59;;;;;;;9.55;6.60;;;;;;;;;;4137524;34;20108;-62
2021/12/13 00:32:58;;;;;;;11.85;6.20;;;;;;;;;;4137816;34;20134;-63
2021/12/13 00:35:29;;;;;;;11.93;6.80;;;;;;;;;;4134663;34;20191;-63
2021/12/13 00:37:58;;;;;;;15.93;6.75;;;;;;;;;;4137762;34;20437;-62
2021/12/13 00:40:29;;;;;;;14.35;7.50;;;;;;;;;;4132130;34;20133;-61
2021/12/13 00:43:23;;;;;;;11.18;6.55;;;;;;;;;;4125205;34;20111;-63
2021/12/13 00:45:56;;;;;;;20.05;8.07;;;;;;;;;;4123518;34;20120;-65
2021/12/13 00:48:24;;;;;;;11.60;6.43;;;;;;;;;;4137764;34;20092;-66
2021/12/13 00:51:05;;;;;;;17.33;6.78;;;;;;;;;;4137491;34;20136;-67
2021/12/13 00:53:36;;;;;;;13.55;7.20;;;;;;;;;;4137476;34;20187;-67
2021/12/13 00:56:40;;;;;;;11.80;6.68;;;;;;;;;;4119904;34;20107;-67
2021/12/13 00:59:07;;;;;;;14.63;6.20;;;;;;;;;;4132180;34;20206;-67
2021/12/13 01:01:35;;;;;;;17.40;6.97;;;;;;;;;;4137299;34;20192;-63
2021/12/13 01:04:05;;;;;;;11.52;6.30;;;;;;;;;;4119523;34;20120;-62
2021/12/13 01:06:53;;;;;;;10.07;5.93;;;;;;;;;;4137342;34;20204;-63
2021/12/13 01:09:21;;;;;;;15.27;7.15;;;;;;;;;;4133650;34;20126;-63
2021/12/13 01:11:57;;;;;;;16.62;6.95;;;;;;;;;;4137269;34;20203;-63
2021/12/13 01:14:33;;;;;;;9.40;5.75;;;;;;;;;;4137323;34;20131;-64
2021/12/13 01:17:11;;;;;;;14.57;6.18;;;;;;;;;;4137274;34;20224;-63
2021/12/13 01:19:57;;;;;;;11.75;6.07;;;;;;;;;;4125287;34;20134;-67
2021/12/13 01:22:43;;;;;;;12.10;6.40;;;;;;;;;;4137332;34;20127;-64
2021/12/13 01:25:24;;;;;;;10.00;6.25;;;;;;;;;;4132610;34;20207;-64
2021/12/13 01:28:00;;;;;;;16.23;6.93;;;;;;;;;;4136968;34;20204;-64
2021/12/13 01:30:35;;;;;;;13.07;7.35;;;;;;;;;;4137083;34;20123;-64
2021/12/13 01:33:05;;;;;;;18.35;7.18;;;;;;;;;;4137462;34;20095;-64
2021/12/13 01:35:35;;;;;;;18.73;6.62;;;;;;;;;;4135653;34;20113;-64
2021/12/13 01:38:07;;;;;;;12.65;7.40;;;;;;;;;;4137142;34;20476;-63
2021/12/13 01:40:35;;;;;;;13.77;6.30;;;;;;;;;;4137231;34;20095;-64
2021/12/13 01:43:13;;;;;;;11.95;6.22;;;;;;;;;;4135714;34;20130;-64
2021/12/13 01:45:41;;;;;;;9.00;6.35;;;;;;;;;;4135654;34;20123;-64
2021/12/13 01:48:15;;;;;;;12.10;6.68;;;;;;;;;;4137036;34;20159;-64
2021/12/13 01:50:47;;;;;;;8.32;6.50;;;;;;;;;;4136830;34;20139;-65
2021/12/13 01:53:15;;;;;;;13.20;6.47;;;;;;;;;;4137115;34;20135;-65
2021/12/13 01:55:46;;;;;;;20.67;6.80;;;;;;;;;;4126944;34;20703;-64
2021/12/13 02:01:11;;;;;;;14.82;7.22;;;;;;;;;;4123501;34;20132;-64
2021/12/13 02:04:04;;;;;;;11.57;6.47;;;;;;;;;;4123594;34;20191;-64
2021/12/13 02:06:41;;;;;;;8.27;6.70;;;;;;;;;;4108270;34;20111;-66
2021/12/13 02:09:20;;;;;;;12.77;8.05;;;;;;;;;;4123284;34;20528;-65
2021/12/13 02:11:49;;;;;;;15.60;7.28;;;;;;;;;;4123414;34;20096;-65
2021/12/13 02:14:18;;;;;;;14.18;7.15;;;;;;;;;;4123465;34;20110;-67
2021/12/13 02:17:14;;;;;;;8.05;6.20;;;;;;;;;;4111049;34;20454;-67
2021/12/13 02:19:57;;;;;;;16.62;6.95;;;;;;;;;;4123232;34;20548;-65
2021/12/13 02:22:41;;;;;;;9.98;6.90;;;;;;;;;;4128508;34;20129;-64
2021/12/13 02:25:21;;;;;;;16.05;6.45;;;;;;;;;;4136756;34;20119;-65
2021/12/13 02:27:59;;;;;;;17.12;5.95;;;;;;;;;;4136762;34;20108;-67
2021/12/13 02:30:54;;;;;;;12.00;6.25;;;;;;;;;;4136982;34;20181;-65
2021/12/13 02:33:27;;;;;;;14.90;7.12;;;;;;;;;;4132976;34;20143;-62
2021/12/13 02:35:57;;;;;;;10.90;5.37;;;;;;;;;;4124032;34;20092;-62
2021/12/13 02:38:25;;;;;;;16.92;7.00;;;;;;;;;;4136908;34;20107;-61
2021/12/13 02:40:52;;;;;;;12.73;6.37;;;;;;;;;;4135779;34;20099;-64
2021/12/13 02:43:20;;;;;;;12.57;6.28;;;;;;;;;;4136562;34;20444;-65
2021/12/13 02:45:52;;;;;;;10.25;6.68;;;;;;;;;;4136310;34;20107;-64
2021/12/13 02:48:52;;;;;;;9.40;5.68;;;;;;;;;;4124208;34;20120;-65
2021/12/13 02:51:43;;;;;;;12.15;6.55;;;;;;;;;;4135989;34;20198;-65
2021/12/13 02:54:21;;;;;;;18.62;6.40;;;;;;;;;;4134540;34;20134;-65
2021/12/13 02:57:12;;;;;;;14.68;6.43;;;;;;;;;;4136616;34;20596;-65
2021/12/13 02:59:41;;;;;;;15.07;5.80;;;;;;;;;;4136690;34;20525;-65
2021/12/13 03:02:11;;;;;;;10.75;5.78;;;;;;;;;;4134666;34;20106;-65
2021/12/13 03:04:39;;;;;;;13.07;5.30;;;;;;;;;;4130955;34;20115;-65
2021/12/13 03:07:09;;;;;;;11.80;6.00;;;;;;;;;;4134329;34;20130;-64
2021/12/13 03:09:38;;;;;;;7.62;5.20;;;;;;;;;;4133030;34;20272;-66
2021/12/13 03:12:07;;;;;;;12.32;5.20;;;;;;;;;;4121836;34;20115;-65
2021/12/13 03:14:40;;;;;;;9.20;4.97;;;;;;;;;;4134905;34;20115;-67
2021/12/13 03:17:08;;;;;;;11.85;6.07;;;;;;;;;;4128929;34;20112;-64
2021/12/13 03:19:53;;;;;;;15.18;6.72;;;;;;;;;;4134751;34;20134;-64
2021/12/13 03:22:25;;;;;;;17.02;6.15;;;;;;;;;;4131153;34;20539;-65
2021/12/13 03:25:38;;;;;;;17.33;6.10;;;;;;;;;;4136034;34;20127;-66
2021/12/13 03:28:20;;;;;;;21.87;6.18;;;;;;;;;;4104173;34;20197;-65
2021/12/13 03:31:07;;;;;;;14.30;6.70;;;;;;;;;;4136137;34;20130;-65
2021/12/13 03:33:43;;;;;;;13.30;6.43;;;;;;;;;;4136144;34;20107;-65
2021/12/13 03:36:14;;;;;;;21.80;6.40;;;;;;;;;;4132964;34;20115;-65
2021/12/13 03:38:45;;;;;;;15.65;6.25;;;;;;;;;;4134871;34;20551;-65
2021/12/13 03:41:15;;;;;;;15.05;5.70;;;;;;;;;;4134340;34;20123;-64
2021/12/13 03:43:46;;;;;;;13.18;5.57;;;;;;;;;;4135769;34;20122;-66
2021/12/13 03:46:15;;;;;;;12.90;5.95;;;;;;;;;;4135850;34;20104;-61
2021/12/13 03:48:43;;;;;;;16.40;5.03;;;;;;;;;;4135833;34;20135;-61
2021/12/13 03:51:14;;;;;;;21.77;6.45;;;;;;;;;;4136315;34;20098;-61
2021/12/13 03:53:43;;;;;;;11.90;5.93;;;;;;;;;;4138004;34;20209;-61
2021/12/13 03:56:12;;;;;;;12.77;5.10;;;;;;;;;;4137757;34;20131;-61
2021/12/13 03:58:43;;;;;;;13.82;5.40;;;;;;;;;;4137922;34;20116;-61
2021/12/13 04:01:36;;;;;;;14.07;5.15;;;;;;;;;;4137983;34;20578;-61
2021/12/13 04:04:11;;;;;;;12.93;5.18;;;;;;;;;;4137910;34;20460;-61
2021/12/13 04:06:44;;;;;;;10.27;5.82;;;;;;;;;;4137847;34;20180;-61
2021/12/13 04:09:11;;;;;;;12.32;5.30;;;;;;;;;;4125399;34;20131;-62
2021/12/13 04:11:40;;;;;;;13.07;5.07;;;;;;;;;;4137738;34;20438;-61
2021/12/13 04:14:11;;;;;;;16.15;5.00;;;;;;;;;;4137997;34;20135;-61
2021/12/13 04:17:20;;;;;;;12.60;5.45;;;;;;;;;;4137577;34;20200;-61
2021/12/13 04:19:54;;;;;;;23.83;5.72;;;;;;;;;;4137549;34;20481;-61
2021/12/13 04:22:25;;;;;;;13.85;4.97;;;;;;;;;;4137695;34;20100;-61
2021/12/13 04:24:58;;;;;;;20.88;5.28;;;;;;;;;;4137642;34;20139;-61
2021/12/13 04:27:43;;;;;;;14.18;4.97;;;;;;;;;;4125274;34;20107;-61
2021/12/13 04:30:23;;;;;;;19.48;5.78;;;;;;;;;;4137732;34;20426;-61
2021/12/13 04:32:55;;;;;;;12.63;5.65;;;;;;;;;;4137606;34;20139;-61
2021/12/13 04:35:23;;;;;;;13.65;5.28;;;;;;;;;;4137515;34;20131;-61
2021/12/13 04:37:53;;;;;;;10.88;4.57;;;;;;;;;;4137902;34;20092;-61
2021/12/13 04:40:23;;;;;;;17.23;5.20;;;;;;;;;;4137538;34;20098;-61
2021/12/13 04:43:04;;;;;;;10.60;5.10;;;;;;;;;;4137617;34;20111;-61
2021/12/13 04:45:31;;;;;;;15.40;5.93;;;;;;;;;;4137590;34;20103;-61
2021/12/13 04:48:08;;;;;;;19.35;5.78;;;;;;;;;;4137487;34;20115;-61
2021/12/13 04:50:39;;;;;;;53.25;7.55;;;;;;;;;;4137455;34;20445;-61
2021/12/13 04:53:05;;;;;;;17.90;5.95;;;;;;;;;;4136194;34;20130;-61
2021/12/13 04:55:42;;;;;;;23.87;6.12;;;;;;;;;;4137600;34;20120;-61
2021/12/13 04:58:12;;;;;;;14.00;5.45;;;;;;;;;;4137521;34;20130;-61
2021/12/13 05:00:42;;;;;;;13.73;5.97;;;;;;;;;;4137297;34;20123;-61
2021/12/13 05:03:09;;;;;;;24.05;6.37;;;;;;;;;;4137161;34;20122;-66
2021/12/13 05:05:37;;;;;;;16.12;5.70;;;;;;;;;;4125043;34;20107;-66
2021/12/13 05:08:06;;;;;;;19.83;6.12;;;;;;;;;;4137104;34;20126;-66
2021/12/13 05:10:33;;;;;;;15.52;5.85;;;;;;;;;;4137374;34;20226;-66
2021/12/13 05:13:04;;;;;;;15.25;5.57;;;;;;;;;;4124667;34;20108;-66
2021/12/13 05:15:30;;;;;;;26.17;6.07;;;;;;;;;;4137227;34;20201;-66
2021/12/13 05:17:58;;;;;;;20.45;5.50;;;;;;;;;;4135673;34;20204;-66
2021/12/13 05:20:35;;;;;;;14.15;6.57;;;;;;;;;;4137100;34;20130;-66
2021/12/13 05:23:20;;;;;;;21.25;7.15;;;;;;;;;;4135455;34;20123;-66
2021/12/13 05:25:54;;;;;;;21.12;6.82;;;;;;;;;;4135403;34;20107;-66
2021/12/13 05:28:36;;;;;;;20.50;6.47;;;;;;;;;;4124911;34;20127;-66
2021/12/13 05:31:08;;;;;;;23.92;6.35;;;;;;;;;;4128771;34;20477;-66
2021/12/13 05:33:37;;;;;;;18.33;6.32;;;;;;;;;;4125080;34;20208;-66
2021/12/13 05:36:18;;;;;;;21.05;7.28;;;;;;;;;;4136833;34;20104;-65
2021/12/13 05:38:46;;;;;;;21.30;6.78;;;;;;;;;;4124698;34;20130;-66
2021/12/13 05:41:26;;;;;;;13.35;5.80;;;;;;;;;;4136901;34;20117;-66
2021/12/13 05:44:05;;;;;;;16.25;5.90;;;;;;;;;;4124259;34;20213;-66
2021/12/13 05:46:46;;;;;;;9.93;5.20;;;;;;;;;;4136910;34;20122;-65
2021/12/13 05:49:23;;;;;;;16.73;6.87;;;;;;;;;;4124432;34;20125;-65
2021/12/13 05:51:56;;;;;;;15.35;6.75;;;;;;;;;;4136802;34;20563;-65
2021/12/13 05:54:28;;;;;;;12.95;5.90;;;;;;;;;;4124295;34;20449;-65
2021/12/13 05:57:04;;;;;;;17.98;6.15;;;;;;;;;;4124406;34;20111;-65
2021/12/13 05:59:37;;;;;;;13.45;5.90;;;;;;;;;;4136669;34;20215;-65
2021/12/13 06:02:20;;;;;;;13.75;5.20;;;;;;;;;;4136781;34;20547;-65
2021/12/13 06:05:17;;;;;;;8.68;4.80;;;;;;;;;;4124323;34;20216;-65
2021/12/13 06:07:53;;;;;;;12.63;4.75;;;;;;;;;;4111179;34;20571;-65
2021/12/13 06:10:21;;;;;;;9.93;3.95;;;;;;;;;;4136544;34;20117;-65
2021/12/13 06:13:08;;;;;;;16.62;3.92;;;;;;;;;;4136770;34;20110;-65
2021/12/13 06:15:41;;;;;;;6.68;3.78;;;;;;;;;;4123755;34;20115;-65
2021/12/13 06:18:13;;;;;;;6.80;3.97;;;;;;;;;;4124312;34;20115;-65
2021/12/13 06:21:08;;;;;;;16.98;4.00;;;;;;;;;;4136842;34;20110;-66
2021/12/13 06:23:37;;;;;;;11.93;4.25;;;;;;;;;;4124299;34;20099;-65
2021/12/13 06:26:12;;;;;;;10.30;3.70;;;;;;;;;;4124135;34;20119;-65
2021/12/13 06:28:44;;;;;;;5.37;3.95;;;;;;;;;;4124355;34;20115;-65
2021/12/13 06:31:14;;;;;;;8.73;4.07;;;;;;;;;;4124130;34;20285;-65
2021/12/13 06:33:50;;;;;;;8.02;4.43;;;;;;;;;;4136636;34;20135;-65
2021/12/13 06:36:49;;;;;;;10.63;3.87;;;;;;;;;;4136614;34;20284;-65
2021/12/13 06:39:18;;;;;;;10.45;3.78;;;;;;;;;;4136595;34;20127;-65
2021/12/13 06:42:13;;;;;;;17.08;4.50;;;;;;;;;;4124138;34;20123;-65
2021/12/13 06:44:46;;;;;;;7.20;3.65;;;;;;;;;;4112364;34;20142;-65
2021/12/13 06:47:15;;;;;;;9.02;4.00;;;;;;;;;;4136485;34;20134;-65
2021/12/13 06:49:47;;;;;;;7.90;3.80;;;;;;;;;;4136543;34;20126;-65
2021/12/13 06:52:13;;;;;;;8.10;3.37;;;;;;;;;;4136477;34;20488;-65
2021/12/13 06:54:45;;;;;;;40.03;5.12;;;;;;;;;;4136600;34;20189;-65
2021/12/13 06:57:19;;;;;;;18.17;3.62;;;;;;;;;;4134965;34;20502;-66
2021/12/13 07:00:00;;;;;;;53.60;5.40;;;;;;;;;;4124029;34;20106;-65
2021/12/13 07:02:39;;;;;;;9.68;3.15;;;;;;;;;;4136375;34;20118;-65
2021/12/13 07:05:10;;;;;;;9.38;3.45;;;;;;;;;;4136442;34;20434;-65
2021/12/13 07:07:40;;;;;;;13.25;3.40;;;;;;;;;;4136345;34;20515;-65
2021/12/13 07:10:15;;;;;;;15.13;4.12;;;;;;;;;;4136329;34;20115;-65
2021/12/13 07:12:48;;;;;;;9.25;3.45;;;;;;;;;;4136393;34;20133;-65
2021/12/13 07:15:26;;;;;;;8.73;3.70;;;;;;;;;;4136298;34;20116;-65
2021/12/13 07:18:03;;;;;;;8.85;3.15;;;;;;;;;;4123806;34;20130;-65
2021/12/13 07:20:38;;;;;;;11.12;3.47;;;;;;;;;;4123886;34;20188;-65
2021/12/13 07:23:04;;;;;;;11.87;3.33;;;;;;;;;;4131145;34;20107;-65
2021/12/13 07:25:36;;;;;;;12.55;3.60;;;;;;;;;;4135741;34;20183;-65
2021/12/13 07:28:03;;;;;;;10.30;4.00;;;;;;;;;;4131067;34;20160;-65
2021/12/13 07:30:30;;;;;;;17.10;4.37;;;;;;;;;;4135977;34;20167;-65
2021/12/13 07:33:03;;;;;;;8.88;3.78;;;;;;;;;;4136161;34;20107;-65
2021/12/13 07:35:35;;;;;;;25.85;5.07;;;;;;;;;;4136237;34;20127;-65
2021/12/13 07:38:08;;;;;;;11.15;4.07;;;;;;;;;;4129631;34;20107;-65
2021/12/13 07:40:37;;;;;;;17.23;4.15;;;;;;;;;;4136214;34;20121;-65
2021/12/13 07:43:21;;;;;;;12.80;3.55;;;;;;;;;;4131065;34;20109;-65
2021/12/13 07:46:19;;;;;;;7.78;3.35;;;;;;;;;;4136047;34;20448;-65
2021/12/13 07:48:45;;;;;;;13.48;3.50;;;;;;;;;;4121495;34;20113;-65
2021/12/13 07:51:20;;;;;;;10.90;2.90;;;;;;;;;;4134691;34;20189;-65
2021/12/13 07:53:50;;;;;;;17.17;3.40;;;;;;;;;;4135952;34;20199;-64
2021/12/13 07:56:39;;;;;;;12.88;3.58;;;;;;;;;;4135981;34;20560;-64
2021/12/13 07:59:11;;;;;;;13.95;3.12;;;;;;;;;;4136045;34;20125;-63
2021/12/13 08:01:54;;;;;;;7.72;2.85;;;;;;;;;;4135838;34;20115;-64
2021/12/13 08:04:23;;;;;;;7.30;2.67;;;;;;;;;;4135654;34;20203;-66
2021/12/13 08:06:53;;;;;;;19.02;4.20;;;;;;;;;;4136112;34;20112;-61
2021/12/13 08:09:23;;;;;;;17.20;3.92;;;;;;;;;;4135573;34;20134;-63
2021/12/13 08:12:00;;;;;;;14.15;3.37;;;;;;;;;;4135856;34;20122;-63
2021/12/13 08:14:41;;;;;;;7.95;3.30;;;;;;;;;;4135639;34;20607;-64
2021/12/13 08:17:16;;;;;;;12.98;3.60;;;;;;;;;;4135785;34;20935;-64
2021/12/13 08:19:43;;;;;;;13.88;3.70;;;;;;;;;;4135853;34;20529;-63
2021/12/13 08:22:15;;;;;;;16.00;3.62;;;;;;;;;;4135841;34;20624;-63
2021/12/13 08:24:51;;;;;;;18.70;4.60;;;;;;;;;;4135390;34;20126;-63
2021/12/13 08:27:28;;;;;;;16.23;3.30;;;;;;;;;;4135853;34;20110;-63
2021/12/13 08:30:12;;;;;;;15.98;4.05;;;;;;;;;;4135496;34;20144;-64
2021/12/13 08:32:57;;;;;;;21.10;4.60;;;;;;;;;;4135600;34;20293;-62
2021/12/13 08:35:23;;;;;;;18.75;5.60;;;;;;;;;;4135637;34;20119;-62
2021/12/13 08:37:55;;;;;;;14.32;8.20;;;;;;;;;;4135718;34;20218;-60
2021/12/13 08:40:29;;;;;;;80.32;9.82;;;;;;;;;;4137502;34;20150;-60
2021/12/13 08:42:57;;;;;;;21.27;6.53;;;;;;;;;;4137899;34;20188;-62
2021/12/13 08:45:38;;;;;;;8.45;3.35;;;;;;;;;;4137658;34;20127;-60
2021/12/13 08:48:08;;;;;;;15.27;3.53;;;;;;;;;;4137583;34;20139;-60
2021/12/13 08:50:52;;;;;;;14.05;4.35;;;;;;;;;;4124865;34;20128;-60
2021/12/13 08:53:24;;;;;;;20.17;4.65;;;;;;;;;;4137789;34;20107;-60
2021/12/13 08:56:20;;;;;;;15.95;4.47;;;;;;;;;;4137500;34;20434;-60
2021/12/13 08:58:51;;;;;;;;;;;;;;;;;;4137899;34;20100;-63
2021/12/13 09:01:18;;;;;;;11.52;3.95;;;;;;;;;;4137422;34;20002;-61
2021/12/13 09:03:50;;;;;;;11.45;3.75;;;;;;;;;;4137382;34;20138;-63
2021/12/13 09:06:19;;;;;;;19.52;4.45;;;;;;;;;;4137474;34;20142;-70
2021/12/13 09:09:04;;;;;;;18.17;5.70;;;;;;;;;;4124643;34;20509;-78
2021/12/13 09:11:41;;;;;;;23.58;5.35;;;;;;;;;;4137346;34;20119;-60
2021/12/13 09:14:45;;;;;;;13.88;3.90;;;;;;;;;;4137319;34;20159;-59
2021/12/13 09:17:23;;;;;;;18.10;4.22;;;;;;;;;;4137589;34;20139;-60
2021/12/13 09:19:51;;;;;;;7.20;3.83;;;;;;;;;;4137245;34;20130;-60
2021/12/13 09:22:28;;;;;;;13.50;4.00;;;;;;;;;;4137236;34;20107;-62
2021/12/13 09:25:07;;;;;;;12.52;4.37;;;;;;;;;;4137164;34;20204;-60
2021/12/13 09:27:55;;;;;;;9.93;4.15;;;;;;;;;;4137173;34;20123;-61
2021/12/13 09:30:41;;;;;;;5.78;3.60;;;;;;;;;;4136977;34;20140;-60
2021/12/13 09:33:11;;;;;;;12.23;3.72;;;;;;;;;;4137326;34;20096;-62
2021/12/13 09:35:46;;;;;;;8.75;3.62;;;;;;;;;;4137219;34;20616;-62
2021/12/13 09:38:21;;;;;;;13.80;4.22;;;;;;;;;;4137216;34;20212;-62
2021/12/13 09:40:52;;;;;;;20.92;5.45;;;;;;;;;;4137087;34;20433;-62
2021/12/13 09:43:20;;;;;;;13.32;4.70;;;;;;;;;;4137293;34;20539;-62
2021/12/13 09:45:53;;;;;;;24.02;4.85;;;;;;;;;;4137172;34;20190;-62
2021/12/13 09:48:32;;;;;;;9.88;4.75;;;;;;;;;;4137166;34;20119;-62
2021/12/13 09:51:07;;;;;;;19.15;7.82;;;;;;;;;;4136852;34;20495;-62
2021/12/13 09:53:35;;;;;;;18.48;6.75;;;;;;;;;;4137146;34;20115;-62
2021/12/13 09:56:06;;;;;;;24.45;8.90;;;;;;;;;;4136928;34;20110;-62
2021/12/13 09:58:46;;;;;;;29.52;8.25;;;;;;;;;;4137055;34;20531;-63
2021/12/13 10:01:29;;;;;;;19.37;6.20;;;;;;;;;;4136897;34;20123;-63
2021/12/13 10:04:04;;;;;;;26.87;7.68;;;;;;;;;;4124594;34;20154;-62
2021/12/13 10:06:40;;;;;;;35.55;7.03;;;;;;;;;;4136758;34;20138;-63
2021/12/13 10:09:28;;;;;;;50.63;9.65;;;;;;;;;;4124479;34;20131;-62
2021/12/13 10:12:25;;;;;;;32.60;6.05;;;;;;;;;;4136892;34;20099;-63
2021/12/13 10:15:03;;;;;;;;;;;;;;;;;;4137132;34;20099;-62
2021/12/13 10:17:33;;;;;;;27.00;6.68;;;;;;;;;;4136649;34;19979;-63
2021/12/13 10:20:04;;;;;;;27.70;6.90;;;;;;;;;;4136620;34;20208;-62
2021/12/13 10:22:32;;;;;;;28.15;6.60;;;;;;;;;;4124586;34;20456;-64
2021/12/13 10:25:16;;;;;;;21.95;4.82;;;;;;;;;;4136828;34;20217;-62
2021/12/13 10:27:43;;;;;;;8.55;3.67;;;;;;;;;;4124623;34;20111;-69
2021/12/13 10:30:23;;;;;;;16.70;3.90;;;;;;;;;;4136795;34;20122;-73
2021/12/13 10:32:50;;;;;;;21.65;4.35;;;;;;;;;;4136698;34;20130;-71
2021/12/13 10:35:20;;;;;;;17.27;5.85;;;;;;;;;;4136401;34;20111;-71
2021/12/13 10:38:00;;;;;;;18.10;6.47;;;;;;;;;;4124095;34;20114;-68
2021/12/13 10:40:35;;;;;;;15.10;4.70;;;;;;;;;;4112880;34;20146;-70
2021/12/13 10:43:03;;;;;;;16.75;4.82;;;;;;;;;;4136553;34;20104;-68
2021/12/13 10:45:34;;;;;;;14.55;4.20;;;;;;;;;;4135507;34;20137;-65
2021/12/13 10:48:05;;;;;;;22.17;4.75;;;;;;;;;;4136604;34;20484;-63
2021/12/13 10:50:45;;;;;;;23.35;4.85;;;;;;;;;;4136605;34;20127;-64
2021/12/13 10:53:15;;;;;;;29.17;6.47;;;;;;;;;;4136612;34;20285;-62
2021/12/13 10:55:51;;;;;;;13.88;5.37;;;;;;;;;;4124004;34;20127;-65
2021/12/13 10:58:20;;;;;;;11.75;4.95;;;;;;;;;;4136608;34;20528;-62
2021/12/13 11:00:50;;;;;;;29.85;5.25;;;;;;;;;;4135645;34;20096;-62
2021/12/13 11:03:20;;;;;;;15.95;4.87;;;;;;;;;;4136486;34;20093;-61
2021/12/13 11:05:47;;;;;;;15.07;4.37;;;;;;;;;;4136155;34;20138;-63
2021/12/13 11:08:16;;;;;;;19.87;4.40;;;;;;;;;;4124040;34;20135;-61
2021/12/13 11:10:50;;;;;;;14.73;5.03;;;;;;;;;;4136603;34;20196;-61
2021/12/13 11:13:17;;;;;;;20.17;4.43;;;;;;;;;;4136353;34;20104;-61
2021/12/13 11:15:49;;;;;;;17.75;4.55;;;;;;;;;;4136004;34;20106;-60
2021/12/13 11:18:18;;;;;;;16.33;4.32;;;;;;;;;;4136248;34;20449;-60
2021/12/13 11:20:49;;;;;;;20.10;4.80;;;;;;;;;;4134610;34;20451;-61
2021/12/13 11:23:17;;;;;;;22.92;4.82;;;;;;;;;;4136197;34;20213;-61
2021/12/13 11:25:53;;;;;;;8.57;3.90;;;;;;;;;;4136136;34;20183;-61
2021/12/13 11:28:20;;;;;;;22.33;4.93;;;;;;;;;;4135628;34;20200;-61
2021/12/13 11:30:49;;;;;;;10.98;4.37;;;;;;;;;;4136118;34;20131;-60
2021/12/13 11:33:22;;;;;;;12.45;5.95;;;;;;;;;;4136014;34;20468;-61
2021/12/13 11:36:19;;;;;;;16.23;4.78;;;;;;;;;;4136136;34;20104;-61
2021/12/13 11:38:50;;;;;;;11.52;4.93;;;;;;;;;;4136003;34;20216;-61
2021/12/13 11:41:39;;;;;;;20.88;6.25;;;;;;;;;;4136048;34;20196;-62
2021/12/13 11:44:26;;;;;;;15.07;4.87;;;;;;;;;;4130893;34;20095;-62
2021/12/13 11:47:30;;;;;;;16.60;4.70;;;;;;;;;;4135904;34;20126;-61
2021/12/13 11:50:13;;;;;;;15.27;4.53;;;;;;;;;;4135889;34;20527;-61
2021/12/13 11:52:59;;;;;;;12.27;5.00;;;;;;;;;;4135946;34;20198;-60
2021/12/13 11:55:50;;;;;;;14.25;6.20;;;;;;;;;;4135766;34;20131;-61
2021/12/13 11:58:53;;;;;;;36.33;6.78;;;;;;;;;;4131759;34;20096;-61
2021/12/13 12:01:50;;;;;;;14.10;6.28;;;;;;;;;;4132144;34;20127;-61
2021/12/13 12:04:54;;;;;;;13.27;6.05;;;;;;;;;;4131719;34;20600;-61
2021/12/13 12:07:47;;;;;;;13.52;5.72;;;;;;;;;;4119703;34;20119;-61
2021/12/13 12:10:57;;;;;;;25.12;6.53;;;;;;;;;;4129834;34;20615;-61
2021/12/13 12:14:08;;;;;;;14.95;7.20;;;;;;;;;;4119699;34;20122;-61
2021/12/13 12:16:39;;;;;;;13.38;5.75;;;;;;;;;;4137575;34;20127;-61
2021/12/13 12:19:22;;;;;;;31.95;6.22;;;;;;;;;;4136326;34;20487;-60
2021/12/13 12:22:06;;;;;;;12.98;4.53;;;;;;;;;;4137507;34;20146;-61
2021/12/13 12:24:40;;;;;;;16.50;5.43;;;;;;;;;;4137652;34;20112;-66
2021/12/13 12:27:12;;;;;;;26.05;5.57;;;;;;;;;;4132601;34;20146;-66
2021/12/13 12:29:44;;;;;;;23.67;5.62;;;;;;;;;;4137463;34;20123;-66
2021/12/13 12:32:18;;;;;;;15.52;5.28;;;;;;;;;;4137714;34;20087;-67
2021/12/13 12:34:55;;;;;;;18.50;5.07;;;;;;;;;;4125434;34;20097;-65
2021/12/13 12:37:48;;;;;;;16.60;5.35;;;;;;;;;;4137537;34;20123;-67
2021/12/13 12:40:35;;;;;;;33.85;8.20;;;;;;;;;;4137447;34;20201;-65
2021/12/13 12:43:07;;;;;;;21.12;7.87;;;;;;;;;;4137571;34;20103;-63
2021/12/13 12:45:40;;;;;;;17.37;6.07;;;;;;;;;;4137504;34;20509;-63
2021/12/13 12:48:13;;;;;;;21.00;5.62;;;;;;;;;;4120167;34;20131;-63
2021/12/13 12:50:49;;;;;;;13.32;5.50;;;;;;;;;;4124858;34;20205;-63
2021/12/13 12:53:51;;;;;;;15.60;5.95;;;;;;;;;;4137404;34;20176;-70
2021/12/13 12:56:34;;;;;;;14.00;5.55;;;;;;;;;;4132124;34;20104;-68
2021/12/13 12:59:08;;;;;;;16.33;6.00;;;;;;;;;;4136211;34;20758;-69
2021/12/13 13:01:38;;;;;;;18.58;5.50;;;;;;;;;;4137266;34;20119;-69
2021/12/13 13:04:21;;;;;;;17.15;5.93;;;;;;;;;;4113617;34;20520;-65
2021/12/13 13:07:00;;;;;;;16.27;6.37;;;;;;;;;;4137135;34;20096;-63
2021/12/13 13:09:45;;;;;;;19.65;5.87;;;;;;;;;;4137169;34;20106;-71
2021/12/13 13:12:30;;;;;;;22.67;5.93;;;;;;;;;;4120598;34;20095;-68
2021/12/13 13:15:21;;;;;;;18.50;5.62;;;;;;;;;;4137182;34;20127;-68
2021/12/13 13:18:00;;;;;;;13.07;4.80;;;;;;;;;;4137284;34;20591;-68
2021/12/13 13:20:45;;;;;;;16.40;5.12;;;;;;;;;;4135937;34;20112;-68
2021/12/13 13:23:12;;;;;;;18.80;5.32;;;;;;;;;;4132895;34;20099;-68
2021/12/13 13:25:54;;;;;;;17.87;5.07;;;;;;;;;;4137077;34;20236;-70
2021/12/13 13:28:27;;;;;;;18.55;5.53;;;;;;;;;;4137275;34;20111;-70
2021/12/13 13:31:13;;;;;;;12.90;5.12;;;;;;;;;;4135715;34;20197;-70
2021/12/13 13:33:58;;;;;;;15.95;4.90;;;;;;;;;;4137251;34;20516;-70
2021/12/13 13:36:33;;;;;;;21.70;8.13;;;;;;;;;;4137231;34;20115;-72
2021/12/13 13:39:16;;;;;;;16.37;7.47;;;;;;;;;;4136053;34;20311;-71
2021/12/13 13:41:45;;;;;;;34.15;9.63;;;;;;;;;;4137149;34;20131;-70
2021/12/13 13:44:15;;;;;;;26.15;9.88;;;;;;;;;;4137014;34;20515;-71
2021/12/13 13:46:42;;;;;;;31.92;9.23;;;;;;;;;;4136928;34;20115;-71
2021/12/13 13:49:08;;;;;;;24.50;8.63;;;;;;;;;;4136809;34;20131;-72
2021/12/13 13:51:36;;;;;;;27.77;8.18;;;;;;;;;;4136788;34;20130;-73
2021/12/13 13:54:03;;;;;;;26.77;9.23;;;;;;;;;;4136509;34;20103;-66
2021/12/13 13:56:36;;;;;;;18.98;6.95;;;;;;;;;;4136745;34;20501;-66
2021/12/13 13:59:11;;;;;;;15.32;7.00;;;;;;;;;;4136832;34;20087;-63
2021/12/13 14:01:37;;;;;;;21.62;7.78;;;;;;;;;;4136568;34;20204;-63
2021/12/13 14:04:15;;;;;;;16.05;7.32;;;;;;;;;;4136990;34;20139;-62
2021/12/13 14:06:43;;;;;;;18.17;6.55;;;;;;;;;;4136809;34;20216;-64
2021/12/13 14:09:13;;;;;;;13.15;5.80;;;;;;;;;;4124244;34;20115;-64
2021/12/13 14:11:50;;;;;;;17.27;6.35;;;;;;;;;;4135678;34;20196;-65
2021/12/13 14:14:18;;;;;;;15.35;6.30;;;;;;;;;;4136830;34;20119;-64
2021/12/13 14:16:49;;;;;;;21.25;5.53;;;;;;;;;;4136714;34;20104;-65
2021/12/13 14:19:26;;;;;;;14.63;6.87;;;;;;;;;;4136688;34;20134;-65
2021/12/13 14:21:52;;;;;;;14.57;6.45;;;;;;;;;;4137037;34;20107;-65
2021/12/13 14:24:18;;;;;;;20.75;7.03;;;;;;;;;;4135334;34;20134;-66
2021/12/13 14:26:44;;;;;;;14.73;6.25;;;;;;;;;;4136919;34;20092;-65
2021/12/13 14:29:10;;;;;;;24.05;6.37;;;;;;;;;;4136669;34;20489;-65
2021/12/13 14:31:43;;;;;;;16.40;6.25;;;;;;;;;;4136691;34;20110;-64
2021/12/13 14:34:16;;;;;;;13.65;6.05;;;;;;;;;;4136695;34;20540;-66
2021/12/13 14:36:51;;;;;;;23.83;7.10;;;;;;;;;;4135722;34;20177;-62
2021/12/13 14:39:22;;;;;;;8.60;4.57;;;;;;;;;;4136759;34;20131;-61
2021/12/13 14:41:50;;;;;;;16.02;5.60;;;;;;;;;;4136667;34;20111;-60
2021/12/13 14:44:21;;;;;;;10.75;6.40;;;;;;;;;;4136532;34;20558;-62
2021/12/13 14:46:54;;;;;;;15.93;6.18;;;;;;;;;;4135131;34;20430;-62
2021/12/13 14:49:24;;;;;;;17.52;5.20;;;;;;;;;;4136505;34;20154;-61
2021/12/13 14:51:58;;;;;;;15.43;4.70;;;;;;;;;;4136468;34;20092;-62
2021/12/13 14:54:27;;;;;;;13.35;4.20;;;;;;;;;;4136498;34;20146;-60
2021/12/13 14:56:57;;;;;;;16.27;4.37;;;;;;;;;;4136615;34;20122;-61
2021/12/13 14:59:23;;;;;;;14.20;4.50;;;;;;;;;;4136388;34;20232;-62
2021/12/13 15:01:50;;;;;;;15.88;3.95;;;;;;;;;;4136208;34;20131;-63
2021/12/13 15:04:19;;;;;;;15.73;4.07;;;;;;;;;;4136203;34;20214;-62
2021/12/13 15:06:56;;;;;;;11.57;3.62;;;;;;;;;;4136158;34;20123;-63
2021/12/13 15:09:27;;;;;;;11.23;3.40;;;;;;;;;;4135340;34;20532;-63
2021/12/13 15:12:04;;;;;;;9.75;3.08;;;;;;;;;;4134581;34;20120;-64
2021/12/13 15:14:34;;;;;;;9.80;3.35;;;;;;;;;;4135957;34;20115;-64
2021/12/13 15:17:37;;;;;;;13.05;2.90;;;;;;;;;;4136162;34;20096;-64
2021/12/13 15:20:13;;;;;;;17.02;3.40;;;;;;;;;;4136096;34;20130;-64
2021/12/13 15:22:49;;;;;;;9.80;3.08;;;;;;;;;;4136214;34;20200;-63
2021/12/13 15:25:17;;;;;;;;;;;;;;;;;;4136582;34;20100;-63
2021/12/13 15:27:46;;;;;;;11.12;2.72;;;;;;;;;;4135997;34;20168;-63
2021/12/13 15:30:16;;;;;;;14.48;3.30;;;;;;;;;;4136235;34;20102;-64
2021/12/13 15:32:48;;;;;;;8.02;2.85;;;;;;;;;;4134666;34;20092;-60
2021/12/13 15:35:15;;;;;;;12.73;2.90;;;;;;;;;;4136126;34;20212;-61
2021/12/13 15:37:47;;;;;;;10.95;2.65;;;;;;;;;;4136329;34;20110;-61
2021/12/13 15:40:31;;;;;;;9.90;2.95;;;;;;;;;;4134809;34;20138;-62
2021/12/13 15:43:32;;;;;;;10.45;2.53;;;;;;;;;;4136014;34;20091;-61
2021/12/13 15:46:14;;;;;;;7.65;2.95;;;;;;;;;;4135756;34;20212;-61